createdAt,value
2019-06-15T00:00:01.696Z,19.50
2019-06-15T00:02:30.322Z,19.50
2019-06-15T00:04:58.776Z,19.40
2019-06-15T00:07:27.259Z,19.40
2019-06-15T00:09:55.694Z,19.40
2019-06-15T00:12:24.122Z,19.40
2019-06-15T00:14:52.561Z,19.30
2019-06-15T00:17:21.012Z,19.40
2019-06-15T00:19:49.524Z,19.50
2019-06-15T00:22:18.009Z,19.50
2019-06-15T00:24:46.458Z,19.50
2019-06-15T00:27:14.882Z,19.50
2019-06-15T00:29:43.317Z,19.50
2019-06-15T00:32:11.751Z,19.40
2019-06-15T00:34:40.191Z,19.50
2019-06-15T00:37:08.618Z,19.50
2019-06-15T00:39:37.059Z,19.30
2019-06-15T00:42:05.504Z,19.20
2019-06-15T00:44:33.963Z,19.10
2019-06-15T00:47:02.402Z,19.00
2019-06-15T00:49:30.842Z,19.00
2019-06-15T00:51:59.258Z,19.00
2019-06-15T00:54:27.725Z,19.00
2019-06-15T00:56:56.318Z,18.90
2019-06-15T00:59:24.785Z,19.00
2019-06-15T01:01:53.208Z,19.00
2019-06-15T01:04:21.632Z,19.20
2019-06-15T01:06:50.069Z,19.20
2019-06-15T01:09:18.507Z,19.20
2019-06-15T01:11:46.934Z,19.10
2019-06-15T01:14:15.366Z,19.00
2019-06-15T01:16:43.869Z,19.00
2019-06-15T01:19:12.376Z,19.00
2019-06-15T01:21:40.820Z,19.10
2019-06-15T01:24:09.237Z,19.20
2019-06-15T01:26:37.679Z,19.30
2019-06-15T01:29:06.116Z,19.30
2019-06-15T01:31:34.553Z,19.30
2019-06-15T01:34:03.138Z,19.30
2019-06-15T01:36:31.638Z,19.30
2019-06-15T01:39:00.077Z,19.20
2019-06-15T01:41:29.911Z,19.20
2019-06-15T01:43:58.363Z,19.30
2019-06-15T01:46:26.866Z,19.30
2019-06-15T01:48:55.297Z,19.20
2019-06-15T01:51:23.735Z,19.30
2019-06-15T01:53:52.165Z,19.30
2019-06-15T01:56:20.601Z,19.20
2019-06-15T01:58:49.145Z,19.30
2019-06-15T02:01:17.592Z,19.30
2019-06-15T02:03:46.025Z,19.30
2019-06-15T02:06:14.455Z,19.30
2019-06-15T02:08:42.878Z,19.30
2019-06-15T02:11:11.446Z,19.40
2019-06-15T02:13:39.886Z,19.40
2019-06-15T02:16:08.340Z,19.40
2019-06-15T02:18:36.775Z,19.30
2019-06-15T02:21:05.232Z,19.20
2019-06-15T02:23:33.724Z,19.20
2019-06-15T02:26:02.217Z,19.30
2019-06-15T02:28:30.738Z,19.30
2019-06-15T02:30:59.154Z,19.30
2019-06-15T02:33:27.586Z,19.30
2019-06-15T02:35:56.032Z,19.30
2019-06-15T02:38:24.533Z,19.20
2019-06-15T02:40:52.955Z,19.30
2019-06-15T02:43:21.638Z,19.30
2019-06-15T02:45:50.065Z,19.40
2019-06-15T02:48:18.501Z,19.40
2019-06-15T02:50:46.929Z,19.40
2019-06-15T02:53:15.363Z,19.50
2019-06-15T02:55:50.621Z,19.50
2019-06-15T02:58:13.945Z,19.40
2019-06-15T03:01:02.046Z,19.40
2019-06-15T03:03:30.483Z,19.40
2019-06-15T03:05:59.287Z,19.50
2019-06-15T03:08:27.717Z,19.50
2019-06-15T03:10:56.213Z,19.60
2019-06-15T03:13:24.659Z,19.60
2019-06-15T03:15:53.088Z,19.60
2019-06-15T03:18:21.541Z,19.60
2019-06-15T03:20:49.981Z,19.60
2019-06-15T03:23:18.466Z,19.50
2019-06-15T03:25:46.915Z,19.50
2019-06-15T03:28:15.346Z,19.50
2019-06-15T03:30:43.784Z,19.40
2019-06-15T03:33:12.221Z,19.40
2019-06-15T03:35:40.663Z,19.40
2019-06-15T03:38:09.082Z,19.40
2019-06-15T03:40:37.553Z,19.40
2019-06-15T03:43:06.041Z,19.30
2019-06-15T03:45:34.481Z,19.30
2019-06-15T03:48:02.921Z,19.10
2019-06-15T03:50:31.425Z,19.00
2019-06-15T03:52:59.894Z,18.90
2019-06-15T03:55:28.334Z,18.90
2019-06-15T03:57:56.782Z,18.90
2019-06-15T04:00:46.322Z,18.80
2019-06-15T04:03:15.294Z,18.70
2019-06-15T04:05:44.289Z,18.60
2019-06-15T04:08:12.719Z,18.60
2019-06-15T04:10:41.441Z,18.70
2019-06-15T04:13:10.112Z,18.70
2019-06-15T04:15:38.546Z,18.80
2019-06-15T04:18:06.981Z,18.60
2019-06-15T04:20:35.454Z,18.60
2019-06-15T04:23:04.159Z,18.70
2019-06-15T04:25:32.577Z,18.70
2019-06-15T04:28:01.093Z,18.70
2019-06-15T04:30:29.522Z,18.70
2019-06-15T04:32:57.964Z,18.70
2019-06-15T04:35:26.385Z,18.80
2019-06-15T04:37:54.827Z,18.80
2019-06-15T04:40:23.262Z,18.80
2019-06-15T04:42:51.694Z,18.70
2019-06-15T04:45:20.130Z,18.60
2019-06-15T04:47:48.563Z,18.60
2019-06-15T04:50:17.134Z,18.60
2019-06-15T04:52:45.616Z,18.50
2019-06-15T04:55:14.606Z,18.50
2019-06-15T04:57:43.143Z,18.60
2019-06-15T05:00:12.330Z,18.50
2019-06-15T05:02:40.766Z,18.50
2019-06-15T05:05:09.360Z,18.60
2019-06-15T05:07:37.810Z,18.50
2019-06-15T05:10:06.893Z,18.40
2019-06-15T05:12:35.832Z,18.30
2019-06-15T05:15:06.210Z,18.40
2019-06-15T05:17:34.641Z,18.30
2019-06-15T05:20:03.953Z,18.20
2019-06-15T05:22:32.389Z,18.10
2019-06-15T05:25:00.840Z,18.10
2019-06-15T05:27:30.429Z,18.00
2019-06-15T05:29:58.870Z,18.00
2019-06-15T05:32:27.390Z,17.80
2019-06-15T05:34:55.826Z,17.80
2019-06-15T05:37:24.264Z,17.80
2019-06-15T05:39:52.707Z,17.90
2019-06-15T05:42:21.510Z,17.70
2019-06-15T05:44:50.038Z,17.70
2019-06-15T05:47:18.470Z,17.80
2019-06-15T05:49:46.914Z,17.70
2019-06-15T05:52:15.350Z,17.80
2019-06-15T05:54:43.816Z,17.90
2019-06-15T05:57:21.246Z,17.80
2019-06-15T05:59:42.578Z,17.80
2019-06-15T06:02:11.015Z,17.70
2019-06-15T06:04:39.454Z,17.60
2019-06-15T06:07:08.006Z,17.80
2019-06-15T06:09:36.454Z,17.80
2019-06-15T06:12:05.154Z,17.70
2019-06-15T06:14:33.678Z,17.70
2019-06-15T06:17:02.106Z,17.70
2019-06-15T06:19:30.548Z,17.70
2019-06-15T06:21:58.986Z,17.80
2019-06-15T06:24:27.445Z,17.80
2019-06-15T06:26:55.874Z,17.90
2019-06-15T06:29:24.323Z,18.10
2019-06-15T06:31:52.757Z,18.10
2019-06-15T06:34:21.212Z,18.20
2019-06-15T06:36:49.640Z,18.30
2019-06-15T06:39:18.223Z,18.40
2019-06-15T06:41:46.662Z,18.60
2019-06-15T06:44:15.102Z,18.70
2019-06-15T06:46:43.551Z,18.70
2019-06-15T06:49:11.993Z,18.90
2019-06-15T06:51:40.442Z,18.90
2019-06-15T06:54:08.879Z,18.80
2019-06-15T06:56:37.399Z,18.90
2019-06-15T06:59:05.823Z,19.00
2019-06-15T07:01:34.274Z,19.10
2019-06-15T07:04:02.744Z,19.10
2019-06-15T07:06:31.242Z,19.10
2019-06-15T07:08:59.674Z,19.00
2019-06-15T07:11:28.120Z,19.00
2019-06-15T07:13:56.548Z,18.90
2019-06-15T07:16:24.998Z,18.80
2019-06-15T07:18:53.426Z,18.70
2019-06-15T07:21:21.916Z,18.80
2019-06-15T07:23:50.383Z,18.80
2019-06-15T07:26:18.827Z,18.90
2019-06-15T07:28:47.322Z,18.90
2019-06-15T07:31:15.805Z,18.90
2019-06-15T07:33:44.268Z,18.90
2019-06-15T07:36:12.757Z,18.90
2019-06-15T07:38:41.225Z,18.90
2019-06-15T07:41:09.664Z,18.80
2019-06-15T07:43:38.092Z,18.70
2019-06-15T07:46:06.529Z,18.80
2019-06-15T07:48:34.963Z,18.80
2019-06-15T07:51:03.593Z,18.80
2019-06-15T07:53:32.035Z,18.80
2019-06-15T07:56:01.029Z,18.90
2019-06-15T07:58:29.476Z,18.90
2019-06-15T08:00:57.905Z,19.00
2019-06-15T08:03:26.358Z,19.10
2019-06-15T08:05:54.783Z,19.10
2019-06-15T08:08:23.492Z,19.20
2019-06-15T08:10:51.986Z,19.30
2019-06-15T08:13:20.434Z,19.30
2019-06-15T08:15:48.865Z,19.30
2019-06-15T08:18:17.305Z,19.40
2019-06-15T08:20:45.747Z,19.50
2019-06-15T08:23:14.187Z,19.50
2019-06-15T08:25:42.621Z,19.30
2019-06-15T08:28:11.133Z,19.20
2019-06-15T08:30:43.721Z,19.20
2019-06-15T08:33:12.802Z,19.20
2019-06-15T08:35:41.239Z,19.30
2019-06-15T08:38:09.755Z,19.40
2019-06-15T08:40:38.212Z,19.40
2019-06-15T08:43:06.707Z,19.40
2019-06-15T08:45:35.138Z,19.30
2019-06-15T08:48:03.953Z,19.20
2019-06-15T08:50:32.394Z,19.30
2019-06-15T08:53:01.026Z,19.20
2019-06-15T08:55:29.460Z,19.20
2019-06-15T08:57:57.969Z,19.30
2019-06-15T09:00:26.901Z,19.40
2019-06-15T09:02:55.330Z,19.50
2019-06-15T09:05:23.782Z,19.70
2019-06-15T09:07:52.216Z,19.70
2019-06-15T09:10:20.657Z,19.60
2019-06-15T09:12:49.099Z,19.40
2019-06-15T09:15:20.730Z,19.50
2019-06-15T09:17:50.701Z,19.50
2019-06-15T09:20:19.141Z,19.40
2019-06-15T09:22:47.578Z,19.40
2019-06-15T09:25:16.034Z,19.20
2019-06-15T09:27:44.468Z,19.40
2019-06-15T09:30:13.182Z,19.60
2019-06-15T09:32:41.621Z,19.60
2019-06-15T09:35:10.326Z,19.50
2019-06-15T09:37:38.762Z,19.50
2019-06-15T09:40:09.926Z,19.70
2019-06-15T09:42:38.355Z,19.60
2019-06-15T09:45:08.603Z,19.60
2019-06-15T09:47:37.046Z,19.60
2019-06-15T09:50:06.618Z,19.80
2019-06-15T09:52:35.057Z,20.00
2019-06-15T09:55:05.238Z,20.00
2019-06-15T09:57:33.692Z,20.00
2019-06-15T10:00:02.963Z,20.20
2019-06-15T10:02:31.538Z,20.20
2019-06-15T10:04:59.986Z,20.30
2019-06-15T10:07:28.409Z,20.20
2019-06-15T10:09:56.838Z,20.20
2019-06-15T10:12:25.274Z,20.00
2019-06-15T10:14:53.715Z,19.90
2019-06-15T10:17:22.586Z,19.90
2019-06-15T10:19:51.029Z,19.90
2019-06-15T10:22:19.495Z,20.00
2019-06-15T10:24:48.248Z,20.00
2019-06-15T10:27:16.922Z,20.00
2019-06-15T10:29:45.352Z,20.00
2019-06-15T10:32:13.805Z,19.90
2019-06-15T10:34:42.289Z,19.80
2019-06-15T10:37:10.812Z,19.80
2019-06-15T10:39:39.322Z,19.90
2019-06-15T10:42:08.059Z,20.00
2019-06-15T10:44:36.578Z,20.20
2019-06-15T10:47:05.021Z,20.30
2019-06-15T10:49:33.518Z,20.40
2019-06-15T10:52:01.977Z,20.40
2019-06-15T10:54:30.466Z,20.50
2019-06-15T10:56:58.906Z,20.40
2019-06-15T10:59:27.344Z,20.50
2019-06-15T11:01:56.330Z,20.40
2019-06-15T11:04:24.782Z,20.40
2019-06-15T11:06:53.290Z,20.60
2019-06-15T11:09:21.714Z,20.70
2019-06-15T11:11:50.158Z,20.70
2019-06-15T11:14:18.584Z,20.70
2019-06-15T11:16:47.319Z,20.80
2019-06-15T11:19:15.804Z,20.80
2019-06-15T11:21:44.364Z,20.80
2019-06-15T11:24:12.862Z,20.80
2019-06-15T11:26:42.181Z,20.80
2019-06-15T11:29:26.114Z,20.80
2019-06-15T11:31:42.722Z,20.80
2019-06-15T11:34:11.199Z,20.90
2019-06-15T11:36:39.660Z,20.90
2019-06-15T11:39:08.742Z,20.90
2019-06-15T11:41:37.181Z,20.90
2019-06-15T11:44:05.953Z,21.00
2019-06-15T11:46:34.381Z,20.90
2019-06-15T11:49:03.166Z,21.00
2019-06-15T11:51:31.593Z,21.00
2019-06-15T11:54:00.042Z,21.00
2019-06-15T11:56:28.507Z,21.00
2019-06-15T11:58:56.950Z,21.00
2019-06-15T12:01:25.387Z,20.90
2019-06-15T12:03:53.834Z,20.80
2019-06-15T12:06:22.266Z,20.70
2019-06-15T12:08:50.750Z,20.60
2019-06-15T12:11:19.515Z,20.60
2019-06-15T12:13:47.962Z,20.50
2019-06-15T12:16:16.393Z,20.50
2019-06-15T12:18:44.837Z,20.50
2019-06-15T12:21:13.287Z,20.50
2019-06-15T12:23:41.733Z,20.40
2019-06-15T12:26:10.165Z,20.50
2019-06-15T12:28:38.868Z,20.70
2019-06-15T12:31:07.446Z,21.00
2019-06-15T12:33:35.888Z,21.40
2019-06-15T12:36:18.279Z,21.70
2019-06-15T12:38:34.698Z,21.60
2019-06-15T12:41:03.213Z,21.70
2019-06-15T12:43:31.659Z,21.70
2019-06-15T12:46:00.177Z,21.70
2019-06-15T12:48:28.615Z,21.80
2019-06-15T12:50:57.061Z,21.70
2019-06-15T12:53:25.514Z,21.60
2019-06-15T12:55:53.967Z,21.40
2019-06-15T12:58:22.393Z,21.30
2019-06-15T13:01:02.785Z,21.30
2019-06-15T13:03:33.142Z,21.30
2019-06-15T13:06:01.594Z,21.30
2019-06-15T13:08:30.034Z,21.60
2019-06-15T13:10:58.479Z,21.80
2019-06-15T13:13:29.997Z,21.80
2019-06-15T13:15:58.452Z,21.90
2019-06-15T13:18:26.960Z,21.90
2019-06-15T13:20:55.397Z,22.00
2019-06-15T13:23:23.882Z,22.00
2019-06-15T13:25:52.326Z,21.70
2019-06-15T13:28:20.762Z,21.50
2019-06-15T13:30:49.582Z,21.40
2019-06-15T13:33:18.066Z,21.20
2019-06-15T13:35:46.521Z,21.10
2019-06-15T13:38:15.008Z,21.00
2019-06-15T13:40:43.512Z,20.90
2019-06-15T13:43:12.198Z,20.90
2019-06-15T13:45:40.987Z,20.90
2019-06-15T13:48:11.656Z,20.90
2019-06-15T13:50:39.605Z,20.80
2019-06-15T13:53:08.041Z,20.70
2019-06-15T13:55:36.512Z,20.70
2019-06-15T13:58:04.944Z,20.70
2019-06-15T14:00:33.610Z,20.70
2019-06-15T14:03:02.105Z,20.70
2019-06-15T14:05:30.539Z,20.70
2019-06-15T14:07:58.977Z,20.60
2019-06-15T14:10:27.413Z,20.80
2019-06-15T14:12:55.858Z,20.90
2019-06-15T14:15:24.309Z,21.30
2019-06-15T14:17:52.827Z,21.50
2019-06-15T14:20:21.288Z,21.90
2019-06-15T14:22:49.805Z,22.00
2019-06-15T14:25:18.256Z,22.00
2019-06-15T14:27:46.757Z,22.20
2019-06-15T14:30:15.556Z,22.10
2019-06-15T14:32:44.397Z,22.00
2019-06-15T14:35:13.117Z,21.70
2019-06-15T14:37:41.570Z,21.90
2019-06-15T14:40:12.021Z,22.20
2019-06-15T14:42:40.458Z,22.40
2019-06-15T14:45:10.873Z,22.20
2019-06-15T14:47:39.386Z,22.10
2019-06-15T14:50:08.278Z,22.00
2019-06-15T14:52:36.771Z,22.20
2019-06-15T14:55:07.255Z,22.40
2019-06-15T14:57:36.192Z,22.70
2019-06-15T15:00:08.945Z,22.90
2019-06-15T15:02:37.242Z,23.00
2019-06-15T15:05:09.014Z,22.60
2019-06-15T15:07:37.461Z,22.00
2019-06-15T15:10:08.214Z,22.30
2019-06-15T15:12:37.144Z,22.60
2019-06-15T15:15:08.650Z,22.60
2019-06-15T15:17:37.362Z,22.70
2019-06-15T15:20:07.355Z,22.50
2019-06-15T15:22:37.111Z,22.60
2019-06-15T15:25:07.058Z,22.60
2019-06-15T15:27:37.506Z,22.70
2019-06-15T15:30:07.946Z,23.20
2019-06-15T15:32:57.088Z,23.40
2019-06-15T15:35:26.878Z,23.20
2019-06-15T15:37:56.742Z,23.30
2019-06-15T15:40:27.480Z,23.50
2019-06-15T15:42:56.273Z,23.50
2019-06-15T15:45:26.289Z,23.80
2019-06-15T15:47:55.012Z,23.50
2019-06-15T15:50:26.070Z,23.70
2019-06-15T15:52:53.950Z,23.80
2019-06-15T15:55:22.412Z,24.00
2019-06-15T15:57:50.907Z,23.50
2019-06-15T16:00:38.852Z,23.40
2019-06-15T16:03:07.411Z,23.20
2019-06-15T16:05:37.096Z,22.60
2019-06-15T16:08:06.721Z,22.50
2019-06-15T16:10:37.335Z,22.50
2019-06-15T16:13:06.456Z,22.50
2019-06-15T16:15:37.296Z,22.30
2019-06-15T16:18:06.739Z,22.20
2019-06-15T16:20:37.086Z,22.20
2019-06-15T16:23:07.506Z,22.10
2019-06-15T16:25:37.194Z,22.10
2019-06-15T16:28:07.036Z,22.10
2019-06-15T16:31:00.670Z,22.00
2019-06-15T16:33:07.645Z,21.80
2019-06-15T16:35:36.924Z,21.90
2019-06-15T16:38:07.019Z,21.90
2019-06-15T16:40:39.493Z,21.90
2019-06-15T16:43:07.998Z,22.10
2019-06-15T16:45:37.524Z,22.50
2019-06-15T16:48:06.593Z,22.50
2019-06-15T16:50:36.603Z,22.50
2019-06-15T16:53:06.122Z,22.30
2019-06-15T16:55:36.801Z,22.20
2019-06-15T16:58:07.114Z,22.10
2019-06-15T17:00:36.319Z,22.10
2019-06-15T17:03:19.740Z,21.90
2019-06-15T17:05:36.335Z,21.70
2019-06-15T17:08:06.962Z,21.70
2019-06-15T17:10:39.838Z,21.70
2019-06-15T17:13:08.402Z,21.60
2019-06-15T17:15:37.417Z,21.50
2019-06-15T17:18:06.394Z,21.40
2019-06-15T17:20:46.662Z,21.40
2019-06-15T17:23:16.433Z,21.30
2019-06-15T17:25:45.080Z,21.10
2019-06-15T17:28:14.073Z,20.70
2019-06-15T17:30:43.990Z,20.40
2019-06-15T17:33:12.474Z,20.30
2019-06-15T17:35:55.047Z,20.40
2019-06-15T17:38:11.073Z,21.40
2019-06-15T17:40:39.514Z,21.50
2019-06-15T17:43:07.989Z,21.10
2019-06-15T17:45:37.534Z,21.00
2019-06-15T17:48:06.687Z,20.80
2019-06-15T17:50:37.823Z,20.50
2019-06-15T17:53:07.020Z,20.40
2019-06-15T17:55:36.969Z,20.20
2019-06-15T17:58:06.692Z,20.30
2019-06-15T18:00:43.248Z,20.00
2019-06-15T18:03:12.832Z,20.00
2019-06-15T18:05:41.570Z,20.00
2019-06-15T18:08:11.510Z,20.20
2019-06-15T18:10:40.026Z,19.90
2019-06-15T18:13:08.834Z,20.00
2019-06-15T18:15:37.549Z,19.90
2019-06-15T18:18:07.098Z,19.60
2019-06-15T18:20:36.535Z,19.50
2019-06-15T18:23:06.014Z,19.50
2019-06-15T18:25:37.055Z,19.30
2019-06-15T18:28:06.381Z,19.30
2019-06-15T18:30:37.093Z,19.30
2019-06-15T18:33:07.103Z,19.20
2019-06-15T18:35:36.246Z,19.10
2019-06-15T18:38:07.218Z,19.20
2019-06-15T18:40:37.162Z,19.20
2019-06-15T18:43:07.330Z,19.10
2019-06-15T18:45:36.220Z,18.90
2019-06-15T18:48:06.225Z,18.90
2019-06-15T18:50:42.168Z,18.80
2019-06-15T18:53:10.737Z,18.80
2019-06-15T18:55:39.167Z,18.70
2019-06-15T18:58:07.589Z,18.70
2019-06-15T19:00:37.123Z,18.60
2019-06-15T19:03:07.020Z,18.50
2019-06-15T19:05:37.340Z,18.50
2019-06-15T19:08:06.984Z,18.10
2019-06-15T19:10:37.012Z,18.00
2019-06-15T19:13:07.535Z,17.80
2019-06-15T19:15:37.702Z,17.80
2019-06-15T19:18:07.463Z,17.80
2019-06-15T19:20:37.356Z,17.80
2019-06-15T19:23:07.138Z,17.60
2019-06-15T19:25:36.470Z,17.50
2019-06-15T19:28:05.812Z,17.50
2019-06-15T19:30:37.135Z,17.40
2019-06-15T19:33:05.602Z,17.40
2019-06-15T19:35:36.270Z,17.40
2019-06-15T19:38:06.255Z,17.30
2019-06-15T19:40:37.710Z,17.20
2019-06-15T19:43:06.573Z,17.20
2019-06-15T19:45:37.035Z,17.20
2019-06-15T19:48:06.646Z,17.20
2019-06-15T19:50:36.238Z,17.20
2019-06-15T19:53:06.963Z,17.20
2019-06-15T19:55:36.310Z,17.20
2019-06-15T19:58:07.344Z,17.10
2019-06-15T20:00:36.566Z,17.20
2019-06-15T20:03:07.096Z,17.30
2019-06-15T20:05:37.066Z,17.40
2019-06-15T20:08:06.978Z,17.30
2019-06-15T20:10:36.989Z,17.20
2019-06-15T20:13:07.204Z,17.20
2019-06-15T20:15:37.707Z,17.00
2019-06-15T20:18:06.963Z,16.90
2019-06-15T20:20:37.014Z,16.70
2019-06-15T20:23:07.205Z,16.70
2019-06-15T20:25:36.906Z,16.70
2019-06-15T20:28:07.149Z,16.70
2019-06-15T20:30:37.184Z,16.70
2019-06-15T20:33:07.995Z,16.70
2019-06-15T20:35:36.416Z,16.70
2019-06-15T20:38:04.909Z,16.80
2019-06-15T20:40:33.337Z,16.80
2019-06-15T20:43:01.791Z,16.70
2019-06-15T20:45:31.569Z,16.80
2019-06-15T20:48:00.453Z,16.70
2019-06-15T20:50:28.956Z,16.70
2019-06-15T20:52:58.000Z,16.70
2019-06-15T20:55:26.728Z,16.70
2019-06-15T20:57:56.810Z,16.70
2019-06-15T21:00:26.381Z,16.70
2019-06-15T21:02:56.258Z,16.70
2019-06-15T21:05:34.736Z,16.80
2019-06-15T21:07:57.670Z,16.70
2019-06-15T21:10:26.432Z,16.70
2019-06-15T21:12:55.424Z,16.80
2019-06-15T21:15:26.990Z,16.50
2019-06-15T21:17:57.092Z,16.50
2019-06-15T21:20:26.758Z,16.60
2019-06-15T21:22:57.239Z,16.70
2019-06-15T21:25:26.491Z,16.70
2019-06-15T21:27:56.775Z,16.60
2019-06-15T21:30:27.128Z,16.60
2019-06-15T21:32:56.039Z,16.80
2019-06-15T21:35:26.842Z,16.80
2019-06-15T21:37:57.224Z,16.70
2019-06-15T21:40:27.318Z,16.80
2019-06-15T21:42:56.271Z,16.80
2019-06-15T21:45:25.021Z,16.80
2019-06-15T21:47:55.879Z,16.80
2019-06-15T21:50:23.630Z,16.40
2019-06-15T21:52:52.201Z,16.40
2019-06-15T21:55:20.614Z,16.60
2019-06-15T21:57:49.722Z,16.40
2019-06-15T22:00:29.697Z,16.50
2019-06-15T22:03:01.361Z,16.60
2019-06-15T22:05:28.286Z,16.60
2019-06-15T22:07:56.894Z,16.50
2019-06-15T22:10:26.537Z,16.30
2019-06-15T22:12:57.202Z,16.30
2019-06-15T22:15:26.592Z,16.40
2019-06-15T22:17:55.174Z,16.40
2019-06-15T22:20:23.618Z,16.40
2019-06-15T22:22:53.780Z,16.40
2019-06-15T22:25:22.373Z,16.50
2019-06-15T22:30:18.941Z,16.40
2019-06-15T22:32:47.463Z,16.40
2019-06-15T22:35:16.486Z,16.40
2019-06-15T22:37:46.806Z,16.30
2019-06-15T22:40:16.658Z,16.30
2019-06-15T22:42:47.018Z,16.30
2019-06-15T22:45:17.333Z,16.30
2019-06-15T22:47:46.798Z,16.40
2019-06-15T22:50:16.139Z,16.50
2019-06-15T22:52:47.174Z,16.50
2019-06-15T22:55:16.562Z,16.40
2019-06-15T22:57:46.153Z,16.40
2019-06-15T23:00:17.118Z,16.40
2019-06-15T23:02:46.149Z,16.40
2019-06-15T23:05:17.141Z,16.20
2019-06-15T23:07:47.183Z,16.20
2019-06-15T23:10:16.656Z,16.40
2019-06-15T23:12:46.405Z,16.40
2019-06-15T23:15:17.467Z,16.40
2019-06-15T23:17:46.683Z,16.30
2019-06-15T23:20:17.092Z,16.30
2019-06-15T23:22:46.792Z,16.20
2019-06-15T23:25:16.751Z,16.30
2019-06-15T23:27:46.960Z,16.40
2019-06-15T23:30:16.337Z,16.30
2019-06-15T23:32:46.905Z,16.20
2019-06-15T23:35:16.842Z,16.10
2019-06-15T23:37:46.468Z,16.10
2019-06-15T23:40:18.978Z,16.20
2019-06-15T23:42:48.870Z,16.20
2019-06-15T23:45:18.744Z,16.20
2019-06-15T23:47:47.518Z,16.10
2019-06-15T23:50:17.981Z,16.10
2019-06-15T23:52:49.126Z,16.10
2019-06-15T23:55:19.707Z,16.00
2019-06-15T23:57:48.137Z,16.10
